sensor_id;sensor_type;location;lat;lon;timestamp;temperature;humidity
60234;DHT22;49514;43.538;-5.708;2023-02-01T00:01:23;9.00;99.90
60234;DHT22;49514;43.538;-5.708;2023-02-01T00:03:49;9.00;99.90
60234;DHT22;49514;43.538;-5.708;2023-02-01T00:06:16;9.00;99.90
60234;DHT22;49514;43.538;-5.708;2023-02-01T00:08:43;9.10;99.90
60234;DHT22;49514;43.538;-5.708;2023-02-01T00:11:11;9.10;99.90
60234;DHT22;49514;43.538;-5.708;2023-02-01T00:13:40;9.10;99.90
60234;DHT22;49514;43.538;-5.708;2023-02-01T00:16:10;9.10;99.90
60234;DHT22;49514;43.538;-5.708;2023-02-01T00:18:38;9.10;99.90
60234;DHT22;49514;43.538;-5.708;2023-02-01T00:21:05;9.10;99.90
60234;DHT22;49514;43.538;-5.708;2023-02-01T00:23:33;9.10;99.90
60234;DHT22;49514;43.538;-5.708;2023-02-01T00:26:02;9.00;99.90
60234;DHT22;49514;43.538;-5.708;2023-02-01T00:28:28;9.00;99.90
60234;DHT22;49514;43.538;-5.708;2023-02-01T00:30:59;9.00;99.90
60234;DHT22;49514;43.538;-5.708;2023-02-01T00:33:27;9.00;99.90
60234;DHT22;49514;43.538;-5.708;2023-02-01T00:35:58;9.10;99.90
60234;DHT22;49514;43.538;-5.708;2023-02-01T00:38:26;9.10;99.90
60234;DHT22;49514;43.538;-5.708;2023-02-01T00:40:52;9.10;99.90
60234;DHT22;49514;43.538;-5.708;2023-02-01T00:43:19;9.10;99.90
60234;DHT22;49514;43.538;-5.708;2023-02-01T00:45:47;9.10;99.90
60234;DHT22;49514;43.538;-5.708;2023-02-01T00:48:13;9.10;99.90
60234;DHT22;49514;43.538;-5.708;2023-02-01T00:50:43;9.10;99.90
60234;DHT22;49514;43.538;-5.708;2023-02-01T00:53:10;9.00;99.90
60234;DHT22;49514;43.538;-5.708;2023-02-01T00:55:37;9.00;99.90
60234;DHT22;49514;43.538;-5.708;2023-02-01T00:58:04;9.00;99.90
60234;DHT22;49514;43.538;-5.708;2023-02-01T01:00:32;9.00;99.90
60234;DHT22;49514;43.538;-5.708;2023-02-01T01:02:59;9.00;99.90
60234;DHT22;49514;43.538;-5.708;2023-02-01T01:05:26;9.00;99.90
60234;DHT22;49514;43.538;-5.708;2023-02-01T01:07:54;9.00;99.90
60234;DHT22;49514;43.538;-5.708;2023-02-01T01:10:20;9.00;99.90
60234;DHT22;49514;43.538;-5.708;2023-02-01T01:12:47;9.10;99.90
60234;DHT22;49514;43.538;-5.708;2023-02-01T01:15:13;9.00;99.90
60234;DHT22;49514;43.538;-5.708;2023-02-01T01:17:40;9.00;99.90
60234;DHT22;49514;43.538;-5.708;2023-02-01T01:20:07;9.00;99.90
60234;DHT22;49514;43.538;-5.708;2023-02-01T01:22:34;9.00;99.90
60234;DHT22;49514;43.538;-5.708;2023-02-01T01:25:01;9.00;99.90
60234;DHT22;49514;43.538;-5.708;2023-02-01T01:27:27;9.00;99.90
60234;DHT22;49514;43.538;-5.708;2023-02-01T01:29:54;9.00;99.90
60234;DHT22;49514;43.538;-5.708;2023-02-01T01:32:20;9.10;99.90
60234;DHT22;49514;43.538;-5.708;2023-02-01T01:34:47;9.00;99.90
60234;DHT22;49514;43.538;-5.708;2023-02-01T01:37:14;9.00;99.90
60234;DHT22;49514;43.538;-5.708;2023-02-01T01:39:41;9.00;99.90
60234;DHT22;49514;43.538;-5.708;2023-02-01T01:42:10;9.00;99.90
60234;DHT22;49514;43.538;-5.708;2023-02-01T01:47:43;8.90;99.90
60234;DHT22;49514;43.538;-5.708;2023-02-01T01:50:16;8.90;99.90
60234;DHT22;49514;43.538;-5.708;2023-02-01T01:52:46;9.00;99.90
60234;DHT22;49514;43.538;-5.708;2023-02-01T01:55:17;9.00;99.90
60234;DHT22;49514;43.538;-5.708;2023-02-01T01:57:52;9.00;99.90
60234;DHT22;49514;43.538;-5.708;2023-02-01T02:00:21;9.00;99.90
60234;DHT22;49514;43.538;-5.708;2023-02-01T02:02:55;9.00;99.90
60234;DHT22;49514;43.538;-5.708;2023-02-01T02:05:23;9.00;99.90
60234;DHT22;49514;43.538;-5.708;2023-02-01T02:07:51;9.00;99.90
60234;DHT22;49514;43.538;-5.708;2023-02-01T02:10:19;9.00;99.90
60234;DHT22;49514;43.538;-5.708;2023-02-01T02:12:48;9.00;99.90
60234;DHT22;49514;43.538;-5.708;2023-02-01T02:15:16;8.90;99.90
60234;DHT22;49514;43.538;-5.708;2023-02-01T02:18:09;9.00;99.90
60234;DHT22;49514;43.538;-5.708;2023-02-01T02:34:34;8.80;99.90
60234;DHT22;49514;43.538;-5.708;2023-02-01T02:37:22;8.70;99.90
60234;DHT22;49514;43.538;-5.708;2023-02-01T02:39:59;8.70;99.90
60234;DHT22;49514;43.538;-5.708;2023-02-01T02:45:49;8.70;99.90
60234;DHT22;49514;43.538;-5.708;2023-02-01T02:51:25;8.70;99.90
60234;DHT22;49514;43.538;-5.708;2023-02-01T02:54:17;8.70;99.90
60234;DHT22;49514;43.538;-5.708;2023-02-01T02:57:06;8.60;99.90
60234;DHT22;49514;43.538;-5.708;2023-02-01T02:59:55;8.60;99.90
60234;DHT22;49514;43.538;-5.708;2023-02-01T03:02:42;8.60;99.90
60234;DHT22;49514;43.538;-5.708;2023-02-01T03:05:35;8.60;99.90
60234;DHT22;49514;43.538;-5.708;2023-02-01T03:13:22;8.60;99.90
60234;DHT22;49514;43.538;-5.708;2023-02-01T03:15:57;8.50;99.90
60234;DHT22;49514;43.538;-5.708;2023-02-01T03:21:55;8.60;99.90
60234;DHT22;49514;43.538;-5.708;2023-02-01T03:27:24;8.50;99.90
60234;DHT22;49514;43.538;-5.708;2023-02-01T03:32:47;8.50;99.90
60234;DHT22;49514;43.538;-5.708;2023-02-01T03:35:40;8.50;99.90
60234;DHT22;49514;43.538;-5.708;2023-02-01T03:46:35;8.50;99.90
60234;DHT22;49514;43.538;-5.708;2023-02-01T03:49:08;8.50;99.90
60234;DHT22;49514;43.538;-5.708;2023-02-01T03:51:41;8.50;99.90
60234;DHT22;49514;43.538;-5.708;2023-02-01T03:54:12;8.40;99.90
60234;DHT22;49514;43.538;-5.708;2023-02-01T03:56:43;8.40;99.90
60234;DHT22;49514;43.538;-5.708;2023-02-01T03:59:11;8.40;99.90
60234;DHT22;49514;43.538;-5.708;2023-02-01T04:01:38;8.40;99.90
60234;DHT22;49514;43.538;-5.708;2023-02-01T04:04:05;8.40;99.90
60234;DHT22;49514;43.538;-5.708;2023-02-01T04:06:32;8.40;99.90
60234;DHT22;49514;43.538;-5.708;2023-02-01T04:09:02;8.30;99.90
60234;DHT22;49514;43.538;-5.708;2023-02-01T04:11:28;8.30;99.90
60234;DHT22;49514;43.538;-5.708;2023-02-01T04:13:55;8.30;99.90
60234;DHT22;49514;43.538;-5.708;2023-02-01T04:16:22;8.20;99.90
60234;DHT22;49514;43.538;-5.708;2023-02-01T04:18:48;8.20;99.90
60234;DHT22;49514;43.538;-5.708;2023-02-01T04:21:15;8.20;99.90
60234;DHT22;49514;43.538;-5.708;2023-02-01T04:23:42;8.20;99.90
60234;DHT22;49514;43.538;-5.708;2023-02-01T04:26:08;8.20;99.90
60234;DHT22;49514;43.538;-5.708;2023-02-01T04:28:35;8.20;99.90
60234;DHT22;49514;43.538;-5.708;2023-02-01T04:31:01;8.20;99.90
60234;DHT22;49514;43.538;-5.708;2023-02-01T04:33:28;8.20;99.90
60234;DHT22;49514;43.538;-5.708;2023-02-01T04:35:55;8.20;99.90
60234;DHT22;49514;43.538;-5.708;2023-02-01T04:38:21;8.20;99.90
60234;DHT22;49514;43.538;-5.708;2023-02-01T04:40:48;8.20;99.90
60234;DHT22;49514;43.538;-5.708;2023-02-01T04:43:16;8.20;99.90
60234;DHT22;49514;43.538;-5.708;2023-02-01T04:45:50;8.20;99.90
60234;DHT22;49514;43.538;-5.708;2023-02-01T04:48:18;8.20;99.90
60234;DHT22;49514;43.538;-5.708;2023-02-01T04:50:46;8.20;99.90
60234;DHT22;49514;43.538;-5.708;2023-02-01T04:53:14;8.10;99.90
60234;DHT22;49514;43.538;-5.708;2023-02-01T04:55:42;8.10;99.90
60234;DHT22;49514;43.538;-5.708;2023-02-01T04:58:09;8.10;99.90
60234;DHT22;49514;43.538;-5.708;2023-02-01T05:00:36;8.10;99.90
60234;DHT22;49514;43.538;-5.708;2023-02-01T05:03:03;8.10;99.90
60234;DHT22;49514;43.538;-5.708;2023-02-01T05:05:30;8.10;99.90
60234;DHT22;49514;43.538;-5.708;2023-02-01T05:07:56;8.10;99.90
60234;DHT22;49514;43.538;-5.708;2023-02-01T05:10:23;8.10;99.90
60234;DHT22;49514;43.538;-5.708;2023-02-01T05:12:50;8.00;99.90
60234;DHT22;49514;43.538;-5.708;2023-02-01T05:15:35;8.00;99.90
60234;DHT22;49514;43.538;-5.708;2023-02-01T05:18:02;8.10;99.90
60234;DHT22;49514;43.538;-5.708;2023-02-01T05:20:28;8.10;99.90
60234;DHT22;49514;43.538;-5.708;2023-02-01T05:22:55;8.10;99.90
60234;DHT22;49514;43.538;-5.708;2023-02-01T05:25:22;8.10;99.90
60234;DHT22;49514;43.538;-5.708;2023-02-01T05:27:49;8.10;99.90
60234;DHT22;49514;43.538;-5.708;2023-02-01T05:30:15;8.10;99.90
60234;DHT22;49514;43.538;-5.708;2023-02-01T05:32:42;8.10;99.90
60234;DHT22;49514;43.538;-5.708;2023-02-01T05:35:09;8.10;99.90
60234;DHT22;49514;43.538;-5.708;2023-02-01T05:37:35;8.10;99.90
60234;DHT22;49514;43.538;-5.708;2023-02-01T05:40:02;8.00;99.90
60234;DHT22;49514;43.538;-5.708;2023-02-01T05:42:29;8.00;99.90
60234;DHT22;49514;43.538;-5.708;2023-02-01T05:44:55;8.10;99.90
60234;DHT22;49514;43.538;-5.708;2023-02-01T05:47:22;8.10;99.90
60234;DHT22;49514;43.538;-5.708;2023-02-01T05:49:48;8.00;99.90
60234;DHT22;49514;43.538;-5.708;2023-02-01T05:52:15;8.10;99.90
60234;DHT22;49514;43.538;-5.708;2023-02-01T05:54:46;8.10;99.90
60234;DHT22;49514;43.538;-5.708;2023-02-01T05:57:16;8.10;99.90
60234;DHT22;49514;43.538;-5.708;2023-02-01T05:59:42;8.10;99.90
60234;DHT22;49514;43.538;-5.708;2023-02-01T06:02:11;8.10;99.90
60234;DHT22;49514;43.538;-5.708;2023-02-01T06:04:38;8.10;99.90
60234;DHT22;49514;43.538;-5.708;2023-02-01T06:07:06;8.10;99.90
60234;DHT22;49514;43.538;-5.708;2023-02-01T06:09:35;8.10;99.90
60234;DHT22;49514;43.538;-5.708;2023-02-01T06:12:02;8.10;99.90
60234;DHT22;49514;43.538;-5.708;2023-02-01T06:14:29;8.10;99.90
60234;DHT22;49514;43.538;-5.708;2023-02-01T06:16:57;8.10;99.90
60234;DHT22;49514;43.538;-5.708;2023-02-01T06:19:24;8.10;99.90
60234;DHT22;49514;43.538;-5.708;2023-02-01T06:21:50;8.10;99.90
60234;DHT22;49514;43.538;-5.708;2023-02-01T06:24:17;8.10;99.90
60234;DHT22;49514;43.538;-5.708;2023-02-01T06:26:44;8.10;99.90
60234;DHT22;49514;43.538;-5.708;2023-02-01T06:29:11;8.10;99.90
60234;DHT22;49514;43.538;-5.708;2023-02-01T06:31:38;8.10;99.90
60234;DHT22;49514;43.538;-5.708;2023-02-01T06:34:06;8.10;99.90
60234;DHT22;49514;43.538;-5.708;2023-02-01T06:36:32;8.10;99.90
60234;DHT22;49514;43.538;-5.708;2023-02-01T06:38:59;8.10;99.90
60234;DHT22;49514;43.538;-5.708;2023-02-01T06:41:26;8.10;99.90
60234;DHT22;49514;43.538;-5.708;2023-02-01T06:43:53;8.10;99.90
60234;DHT22;49514;43.538;-5.708;2023-02-01T06:46:19;8.10;99.90
60234;DHT22;49514;43.538;-5.708;2023-02-01T06:48:46;8.10;99.90
60234;DHT22;49514;43.538;-5.708;2023-02-01T06:51:24;8.20;99.90
60234;DHT22;49514;43.538;-5.708;2023-02-01T06:53:51;8.20;99.90
60234;DHT22;49514;43.538;-5.708;2023-02-01T06:56:18;8.20;99.90
60234;DHT22;49514;43.538;-5.708;2023-02-01T06:58:45;8.20;99.90
60234;DHT22;49514;43.538;-5.708;2023-02-01T07:01:12;8.20;99.90
60234;DHT22;49514;43.538;-5.708;2023-02-01T07:03:40;8.30;99.90
60234;DHT22;49514;43.538;-5.708;2023-02-01T07:06:07;8.20;99.90
60234;DHT22;49514;43.538;-5.708;2023-02-01T07:08:36;8.20;99.90
60234;DHT22;49514;43.538;-5.708;2023-02-01T07:11:11;8.30;99.90
60234;DHT22;49514;43.538;-5.708;2023-02-01T07:13:39;8.20;99.90
60234;DHT22;49514;43.538;-5.708;2023-02-01T07:16:12;8.20;99.90
60234;DHT22;49514;43.538;-5.708;2023-02-01T07:18:39;8.30;99.90
60234;DHT22;49514;43.538;-5.708;2023-02-01T07:21:07;8.20;99.90
60234;DHT22;49514;43.538;-5.708;2023-02-01T07:23:35;8.30;99.90
60234;DHT22;49514;43.538;-5.708;2023-02-01T07:26:04;8.20;99.90
60234;DHT22;49514;43.538;-5.708;2023-02-01T07:28:33;8.20;99.90
60234;DHT22;49514;43.538;-5.708;2023-02-01T07:31:04;8.20;99.90
60234;DHT22;49514;43.538;-5.708;2023-02-01T07:33:31;8.20;99.90
60234;DHT22;49514;43.538;-5.708;2023-02-01T07:36:02;8.20;99.90
60234;DHT22;49514;43.538;-5.708;2023-02-01T07:38:29;8.20;99.90
60234;DHT22;49514;43.538;-5.708;2023-02-01T07:41:00;8.20;99.90
60234;DHT22;49514;43.538;-5.708;2023-02-01T07:43:28;8.10;99.90
60234;DHT22;49514;43.538;-5.708;2023-02-01T07:45:55;8.20;99.90
60234;DHT22;49514;43.538;-5.708;2023-02-01T07:48:23;8.10;99.90
60234;DHT22;49514;43.538;-5.708;2023-02-01T07:51:16;8.10;99.90
60234;DHT22;49514;43.538;-5.708;2023-02-01T07:53:44;8.20;99.90
60234;DHT22;49514;43.538;-5.708;2023-02-01T07:56:17;8.20;99.90
60234;DHT22;49514;43.538;-5.708;2023-02-01T07:58:49;8.20;99.90
60234;DHT22;49514;43.538;-5.708;2023-02-01T08:01:21;8.20;99.90
60234;DHT22;49514;43.538;-5.708;2023-02-01T08:03:57;8.20;99.90
60234;DHT22;49514;43.538;-5.708;2023-02-01T08:06:27;8.30;99.90
60234;DHT22;49514;43.538;-5.708;2023-02-01T08:08:54;8.30;99.90
60234;DHT22;49514;43.538;-5.708;2023-02-01T08:11:22;8.30;99.90
60234;DHT22;49514;43.538;-5.708;2023-02-01T08:13:49;8.30;99.90
60234;DHT22;49514;43.538;-5.708;2023-02-01T08:16:18;8.30;99.90
60234;DHT22;49514;43.538;-5.708;2023-02-01T08:18:45;8.30;99.90
60234;DHT22;49514;43.538;-5.708;2023-02-01T08:21:20;8.40;99.90
60234;DHT22;49514;43.538;-5.708;2023-02-01T08:23:48;8.40;99.90
60234;DHT22;49514;43.538;-5.708;2023-02-01T08:28:48;8.50;99.90
60234;DHT22;49514;43.538;-5.708;2023-02-01T08:31:17;8.50;99.90
60234;DHT22;49514;43.538;-5.708;2023-02-01T08:33:49;8.60;99.90
60234;DHT22;49514;43.538;-5.708;2023-02-01T08:36:16;8.60;99.90
60234;DHT22;49514;43.538;-5.708;2023-02-01T08:38:43;8.70;99.90
60234;DHT22;49514;43.538;-5.708;2023-02-01T08:41:16;8.80;99.90
60234;DHT22;49514;43.538;-5.708;2023-02-01T08:43:43;8.80;99.90
60234;DHT22;49514;43.538;-5.708;2023-02-01T08:46:10;8.90;99.90
60234;DHT22;49514;43.538;-5.708;2023-02-01T08:48:38;9.00;99.90
60234;DHT22;49514;43.538;-5.708;2023-02-01T08:51:08;9.10;99.90
60234;DHT22;49514;43.538;-5.708;2023-02-01T08:53:36;9.10;99.90
60234;DHT22;49514;43.538;-5.708;2023-02-01T08:56:03;9.20;99.90
60234;DHT22;49514;43.538;-5.708;2023-02-01T08:58:30;9.30;99.90
60234;DHT22;49514;43.538;-5.708;2023-02-01T09:01:01;9.30;99.90
60234;DHT22;49514;43.538;-5.708;2023-02-01T09:03:28;9.40;99.90
60234;DHT22;49514;43.538;-5.708;2023-02-01T09:06:01;9.40;99.90
60234;DHT22;49514;43.538;-5.708;2023-02-01T09:08:27;9.40;99.90
60234;DHT22;49514;43.538;-5.708;2023-02-01T09:10:59;9.30;99.90
60234;DHT22;49514;43.538;-5.708;2023-02-01T09:13:26;9.20;99.90
60234;DHT22;49514;43.538;-5.708;2023-02-01T09:15:53;9.10;99.90
60234;DHT22;49514;43.538;-5.708;2023-02-01T09:18:20;9.00;99.90
60234;DHT22;49514;43.538;-5.708;2023-02-01T09:20:46;9.00;99.90
60234;DHT22;49514;43.538;-5.708;2023-02-01T09:23:13;9.00;99.90
60234;DHT22;49514;43.538;-5.708;2023-02-01T09:25:40;9.00;99.90
60234;DHT22;49514;43.538;-5.708;2023-02-01T09:28:07;8.90;99.90
60234;DHT22;49514;43.538;-5.708;2023-02-01T09:30:36;8.90;99.90
60234;DHT22;49514;43.538;-5.708;2023-02-01T09:33:04;8.90;99.90
60234;DHT22;49514;43.538;-5.708;2023-02-01T09:35:31;9.00;99.90
60234;DHT22;49514;43.538;-5.708;2023-02-01T09:37:58;9.10;99.90
60234;DHT22;49514;43.538;-5.708;2023-02-01T09:40:25;9.10;99.90
60234;DHT22;49514;43.538;-5.708;2023-02-01T09:48:37;9.60;99.90
60234;DHT22;49514;43.538;-5.708;2023-02-01T09:51:15;9.80;99.90
60234;DHT22;49514;43.538;-5.708;2023-02-01T09:53:45;10.10;99.90
60234;DHT22;49514;43.538;-5.708;2023-02-01T09:56:23;10.40;99.90
60234;DHT22;49514;43.538;-5.708;2023-02-01T09:59:14;10.70;99.90
60234;DHT22;49514;43.538;-5.708;2023-02-01T10:01:46;10.80;99.90
60234;DHT22;49514;43.538;-5.708;2023-02-01T10:04:14;11.00;99.90
60234;DHT22;49514;43.538;-5.708;2023-02-01T10:07:13;11.10;99.90
60234;DHT22;49514;43.538;-5.708;2023-02-01T10:15:18;11.40;99.90
60234;DHT22;49514;43.538;-5.708;2023-02-01T10:17:53;11.50;99.90
60234;DHT22;49514;43.538;-5.708;2023-02-01T10:25:56;11.80;99.90
60234;DHT22;49514;43.538;-5.708;2023-02-01T10:28:26;11.90;99.90
60234;DHT22;49514;43.538;-5.708;2023-02-01T10:33:32;12.10;99.90
60234;DHT22;49514;43.538;-5.708;2023-02-01T10:36:23;12.10;99.90
60234;DHT22;49514;43.538;-5.708;2023-02-01T10:38:51;12.10;99.90
60234;DHT22;49514;43.538;-5.708;2023-02-01T10:43:54;12.50;99.90
60234;DHT22;49514;43.538;-5.708;2023-02-01T10:46:25;12.80;99.90
60234;DHT22;49514;43.538;-5.708;2023-02-01T10:48:54;12.90;99.90
60234;DHT22;49514;43.538;-5.708;2023-02-01T10:51:26;13.00;99.90
60234;DHT22;49514;43.538;-5.708;2023-02-01T10:53:55;13.30;99.90
60234;DHT22;49514;43.538;-5.708;2023-02-01T10:56:25;13.50;99.90
60234;DHT22;49514;43.538;-5.708;2023-02-01T10:59:00;13.80;99.90
60234;DHT22;49514;43.538;-5.708;2023-02-01T11:01:42;14.00;99.90
60234;DHT22;49514;43.538;-5.708;2023-02-01T11:04:20;14.10;99.90
60234;DHT22;49514;43.538;-5.708;2023-02-01T11:06:53;14.20;99.90
60234;DHT22;49514;43.538;-5.708;2023-02-01T11:09:23;14.30;99.90
60234;DHT22;49514;43.538;-5.708;2023-02-01T11:16:59;14.30;99.90
60234;DHT22;49514;43.538;-5.708;2023-02-01T11:19:27;14.30;99.90
60234;DHT22;49514;43.538;-5.708;2023-02-01T11:21:59;14.20;99.90
60234;DHT22;49514;43.538;-5.708;2023-02-01T11:24:28;14.10;99.90
60234;DHT22;49514;43.538;-5.708;2023-02-01T11:26:57;13.90;99.90
60234;DHT22;49514;43.538;-5.708;2023-02-01T11:29:25;13.60;99.90
60234;DHT22;49514;43.538;-5.708;2023-02-01T11:31:59;13.40;99.90
60234;DHT22;49514;43.538;-5.708;2023-02-01T11:34:28;13.30;99.90
60234;DHT22;49514;43.538;-5.708;2023-02-01T11:36:59;13.10;99.90
60234;DHT22;49514;43.538;-5.708;2023-02-01T11:39:32;13.00;99.90
60234;DHT22;49514;43.538;-5.708;2023-02-01T11:42:26;12.80;99.90
60234;DHT22;49514;43.538;-5.708;2023-02-01T11:45:19;12.80;99.90
60234;DHT22;49514;43.538;-5.708;2023-02-01T11:47:46;13.00;99.90
60234;DHT22;49514;43.538;-5.708;2023-02-01T11:50:17;13.20;99.90
60234;DHT22;49514;43.538;-5.708;2023-02-01T11:53:08;13.30;99.90
60234;DHT22;49514;43.538;-5.708;2023-02-01T11:58:31;13.90;99.90
60234;DHT22;49514;43.538;-5.708;2023-02-01T12:01:07;14.20;99.90
60234;DHT22;49514;43.538;-5.708;2023-02-01T12:07:36;15.00;99.90
60234;DHT22;49514;43.538;-5.708;2023-02-01T12:09:45;15.10;99.90
60234;DHT22;49514;43.538;-5.708;2023-02-01T12:12:20;14.90;99.90
60234;DHT22;49514;43.538;-5.708;2023-02-01T12:20:28;14.40;99.90
60234;DHT22;49514;43.538;-5.708;2023-02-01T12:26:44;14.80;99.90
60234;DHT22;49514;43.538;-5.708;2023-02-01T12:34:36;15.20;99.90
60234;DHT22;49514;43.538;-5.708;2023-02-01T12:45:54;17.50;99.90
60234;DHT22;49514;43.538;-5.708;2023-02-01T12:48:41;19.70;99.90
60234;DHT22;49514;43.538;-5.708;2023-02-01T12:51:17;22.10;99.90
60234;DHT22;49514;43.538;-5.708;2023-02-01T12:54:34;23.20;99.90
60234;DHT22;49514;43.538;-5.708;2023-02-01T12:56:43;23.80;98.80
60234;DHT22;49514;43.538;-5.708;2023-02-01T12:59:33;24.80;96.70
60234;DHT22;49514;43.538;-5.708;2023-02-01T13:03:00;25.70;93.20
60234;DHT22;49514;43.538;-5.708;2023-02-01T13:08:08;29.10;90.80
60234;DHT22;49514;43.538;-5.708;2023-02-01T13:10:38;30.30;83.90
60234;DHT22;49514;43.538;-5.708;2023-02-01T13:15:33;29.90;69.10
60234;DHT22;49514;43.538;-5.708;2023-02-01T13:18:03;27.60;72.70
60234;DHT22;49514;43.538;-5.708;2023-02-01T13:20:35;25.50;72.70
60234;DHT22;49514;43.538;-5.708;2023-02-01T13:23:14;23.80;74.60
60234;DHT22;49514;43.538;-5.708;2023-02-01T13:25:48;22.30;79.30
60234;DHT22;49514;43.538;-5.708;2023-02-01T13:28:21;21.10;83.00
60234;DHT22;49514;43.538;-5.708;2023-02-01T13:30:57;20.30;86.60
60234;DHT22;49514;43.538;-5.708;2023-02-01T13:36:27;23.10;90.40
60234;DHT22;49514;43.538;-5.708;2023-02-01T13:39:06;23.50;81.30
60234;DHT22;49514;43.538;-5.708;2023-02-01T13:44:10;21.40;82.70
60234;DHT22;49514;43.538;-5.708;2023-02-01T13:46:44;20.40;85.80
60234;DHT22;49514;43.538;-5.708;2023-02-01T13:49:22;19.50;90.10
60234;DHT22;49514;43.538;-5.708;2023-02-01T13:51:51;18.80;91.60
60234;DHT22;49514;43.538;-5.708;2023-02-01T13:54:52;18.20;93.70
60234;DHT22;49514;43.538;-5.708;2023-02-01T13:57:30;17.90;95.70
60234;DHT22;49514;43.538;-5.708;2023-02-01T14:00:07;17.40;97.60
60234;DHT22;49514;43.538;-5.708;2023-02-01T14:07:34;18.70;97.40
60234;DHT22;49514;43.538;-5.708;2023-02-01T14:12:48;19.10;94.30
60234;DHT22;49514;43.538;-5.708;2023-02-01T14:15:25;18.80;94.50
60234;DHT22;49514;43.538;-5.708;2023-02-01T14:17:52;18.10;95.80
60234;DHT22;49514;43.538;-5.708;2023-02-01T14:20:39;17.50;97.40
60234;DHT22;49514;43.538;-5.708;2023-02-01T14:23:11;17.30;99.90
60234;DHT22;49514;43.538;-5.708;2023-02-01T14:25:38;18.00;99.90
60234;DHT22;49514;43.538;-5.708;2023-02-01T14:28:40;17.90;98.70
60234;DHT22;49514;43.538;-5.708;2023-02-01T14:30:58;18.00;99.60
60234;DHT22;49514;43.538;-5.708;2023-02-01T14:33:26;20.10;99.70
60234;DHT22;49514;43.538;-5.708;2023-02-01T14:38:26;25.40;89.40
60234;DHT22;49514;43.538;-5.708;2023-02-01T14:40:52;27.40;81.10
60234;DHT22;49514;43.538;-5.708;2023-02-01T14:44:14;28.80;74.80
60234;DHT22;49514;43.538;-5.708;2023-02-01T14:49:23;25.20;71.10
60234;DHT22;49514;43.538;-5.708;2023-02-01T14:51:51;23.10;73.50
60234;DHT22;49514;43.538;-5.708;2023-02-01T14:54:20;23.00;78.10
60234;DHT22;49514;43.538;-5.708;2023-02-01T14:56:46;24.70;77.30
60234;DHT22;49514;43.538;-5.708;2023-02-01T14:59:14;26.70;73.80
60234;DHT22;49514;43.538;-5.708;2023-02-01T15:01:55;28.50;71.30
60234;DHT22;49514;43.538;-5.708;2023-02-01T15:04:24;30.00;65.40
60234;DHT22;49514;43.538;-5.708;2023-02-01T15:09:19;31.20;59.10
60234;DHT22;49514;43.538;-5.708;2023-02-01T15:14:33;31.90;58.50
60234;DHT22;49514;43.538;-5.708;2023-02-01T15:17:00;31.50;57.00
60234;DHT22;49514;43.538;-5.708;2023-02-01T15:19:28;31.80;57.90
60234;DHT22;49514;43.538;-5.708;2023-02-01T15:21:57;32.10;58.20
60234;DHT22;49514;43.538;-5.708;2023-02-01T15:24:25;32.60;57.10
60234;DHT22;49514;43.538;-5.708;2023-02-01T15:26:55;32.90;56.60
60234;DHT22;49514;43.538;-5.708;2023-02-01T15:29:23;33.00;55.40
60234;DHT22;49514;43.538;-5.708;2023-02-01T15:31:59;33.00;55.50
60234;DHT22;49514;43.538;-5.708;2023-02-01T15:34:50;33.10;55.40
60234;DHT22;49514;43.538;-5.708;2023-02-01T15:37:17;33.20;55.80
60234;DHT22;49514;43.538;-5.708;2023-02-01T15:40:25;33.20;53.80
60234;DHT22;49514;43.538;-5.708;2023-02-01T15:42:56;33.20;54.20
60234;DHT22;49514;43.538;-5.708;2023-02-01T15:45:29;33.20;53.20
60234;DHT22;49514;43.538;-5.708;2023-02-01T15:47:57;33.20;53.00
60234;DHT22;49514;43.538;-5.708;2023-02-01T15:50:24;32.90;53.40
60234;DHT22;49514;43.538;-5.708;2023-02-01T15:52:53;32.50;53.30
60234;DHT22;49514;43.538;-5.708;2023-02-01T15:55:36;32.60;53.90
60234;DHT22;49514;43.538;-5.708;2023-02-01T15:58:08;32.80;52.30
60234;DHT22;49514;43.538;-5.708;2023-02-01T16:03:34;32.80;52.80
60234;DHT22;49514;43.538;-5.708;2023-02-01T16:06:07;33.00;53.50
60234;DHT22;49514;43.538;-5.708;2023-02-01T16:08:35;33.00;52.20
60234;DHT22;49514;43.538;-5.708;2023-02-01T16:13:35;33.20;52.30
60234;DHT22;49514;43.538;-5.708;2023-02-01T16:16:02;33.40;51.60
60234;DHT22;49514;43.538;-5.708;2023-02-01T16:18:29;33.00;51.40
60234;DHT22;49514;43.538;-5.708;2023-02-01T16:20:56;32.60;52.10
60234;DHT22;49514;43.538;-5.708;2023-02-01T16:23:22;32.30;51.90
60234;DHT22;49514;43.538;-5.708;2023-02-01T16:25:49;32.00;51.80
60234;DHT22;49514;43.538;-5.708;2023-02-01T16:28:15;31.70;52.70
60234;DHT22;49514;43.538;-5.708;2023-02-01T16:30:42;31.50;52.80
60234;DHT22;49514;43.538;-5.708;2023-02-01T16:33:12;31.40;52.70
60234;DHT22;49514;43.538;-5.708;2023-02-01T16:35:41;30.90;52.80
60234;DHT22;49514;43.538;-5.708;2023-02-01T16:38:11;30.70;53.00
60234;DHT22;49514;43.538;-5.708;2023-02-01T16:40:39;30.20;52.90
60234;DHT22;49514;43.538;-5.708;2023-02-01T16:43:15;29.50;53.30
60234;DHT22;49514;43.538;-5.708;2023-02-01T16:45:42;29.00;53.80
60234;DHT22;49514;43.538;-5.708;2023-02-01T16:48:22;27.80;53.80
60234;DHT22;49514;43.538;-5.708;2023-02-01T16:50:50;26.20;55.30
60234;DHT22;49514;43.538;-5.708;2023-02-01T16:53:17;24.60;57.50
60234;DHT22;49514;43.538;-5.708;2023-02-01T16:55:44;23.10;59.20
60234;DHT22;49514;43.538;-5.708;2023-02-01T16:58:13;21.90;60.90
60234;DHT22;49514;43.538;-5.708;2023-02-01T17:00:39;20.90;68.40
60234;DHT22;49514;43.538;-5.708;2023-02-01T17:03:05;20.10;66.40
60234;DHT22;49514;43.538;-5.708;2023-02-01T17:05:32;19.30;67.80
60234;DHT22;49514;43.538;-5.708;2023-02-01T17:08:01;18.80;69.70
60234;DHT22;49514;43.538;-5.708;2023-02-01T17:10:30;18.30;70.20
60234;DHT22;49514;43.538;-5.708;2023-02-01T17:12:57;17.80;71.90
60234;DHT22;49514;43.538;-5.708;2023-02-01T17:15:27;17.50;75.90
60234;DHT22;49514;43.538;-5.708;2023-02-01T17:17:55;17.20;74.50
60234;DHT22;49514;43.538;-5.708;2023-02-01T17:23:00;17.00;76.70
60234;DHT22;49514;43.538;-5.708;2023-02-01T17:25:29;16.90;78.00
60234;DHT22;49514;43.538;-5.708;2023-02-01T17:30:23;16.50;81.90
60234;DHT22;49514;43.538;-5.708;2023-02-01T17:32:50;16.40;82.60
60234;DHT22;49514;43.538;-5.708;2023-02-01T17:35:22;16.20;84.10
60234;DHT22;49514;43.538;-5.708;2023-02-01T17:37:50;16.00;89.10
60234;DHT22;49514;43.538;-5.708;2023-02-01T17:40:19;15.80;89.50
60234;DHT22;49514;43.538;-5.708;2023-02-01T17:42:45;15.60;90.90
60234;DHT22;49514;43.538;-5.708;2023-02-01T17:45:36;15.40;91.10
60234;DHT22;49514;43.538;-5.708;2023-02-01T17:48:07;15.20;93.20
60234;DHT22;49514;43.538;-5.708;2023-02-01T17:50:36;15.00;93.30
60234;DHT22;49514;43.538;-5.708;2023-02-01T17:53:04;14.80;95.00
60234;DHT22;49514;43.538;-5.708;2023-02-01T17:55:36;14.70;95.90
60234;DHT22;49514;43.538;-5.708;2023-02-01T17:58:03;14.60;95.70
60234;DHT22;49514;43.538;-5.708;2023-02-01T18:00:30;14.50;95.90
60234;DHT22;49514;43.538;-5.708;2023-02-01T18:02:57;14.30;96.90
60234;DHT22;49514;43.538;-5.708;2023-02-01T18:05:44;14.20;97.30
60234;DHT22;49514;43.538;-5.708;2023-02-01T18:08:29;14.10;97.50
60234;DHT22;49514;43.538;-5.708;2023-02-01T18:11:00;14.00;98.70
60234;DHT22;49514;43.538;-5.708;2023-02-01T18:13:30;13.90;98.90